Pagrindinis puslapis
METAR-TAF:

METAR-TAF

Oro uostai :

Breša-Ghedi, Italija

platuma: 45-25N, ilguma: 010-17E, Aukštis: 102 m

Dabartinis oras

Ataskaita buvo paskelbta 1 valandą ir 19 minutes, ne 05:55 UTC
Temperatūra 21°C
Drėgmė 73%
Slėgis 1016 hPa
Matomumas 10 km arba daugiau
Išsisklaidę debesys ne aukštis 7000 ft

METAR: LIPL 140555Z /////KT 9999 SCT070 21/16 Q1016 RMK BKN SCT100 VIS MIN 9999 WIND THR31 06005KT WIND THR13 06005KT BLU

Laikas: 09:14 (07:14 UTC)

Prognozė

Ataskaita buvo paskelbta 2 valandos ir 14 minutes, ne 05:00 UTC
Prognozė galioja nuo 14 metu 06 UTC su 14 metu 15 UTC
Vėjas 6 kt iš Rytų
Matomumas 10 km arba daugiau
Mažai debesys ne aukštis 5000 ft
Išsisklaidę debesys ne aukštis 8000 ft

TAF: LIPL 140500Z 1406/1415 09006KT 9999 FEW050 SCT080

Orai ataskaitas ir orų prognozės (METAR, TAF).

turimą stotys yra geltonos ir raudonos taškus žemėlapyje.

Perkelti pele per norėdami pamatyti stoties vardą.

Tada spustelėkite, norėdami matyti oro stebėjimo ir prognozės.

Norėdami pakeisti žemėlapį: spustelėkite ant žalios mygtukų su juodo kryžiaus žemyn,; žalią mygtuką su brūkšneliu, jei norite nutolinti; arba žalių rodyklių gretimoms žemėlapius.


METAR-TAF: